sensor_id;sensor_type;location;lat;lon;timestamp;pressure;altitude;pressure_sealevel;temperature;humidity
79707;BME280;69200;53.612;-2.416;2023-07-31T00:01:11;98636.75;;;15.83;90.00
79707;BME280;69200;53.612;-2.416;2023-07-31T00:03:37;98639.09;;;15.90;90.35
79707;BME280;69200;53.612;-2.416;2023-07-31T00:06:02;98642.44;;;15.73;91.31
79707;BME280;69200;53.612;-2.416;2023-07-31T00:08:28;98639.34;;;15.33;93.56
79707;BME280;69200;53.612;-2.416;2023-07-31T00:10:53;98628.59;;;15.37;94.17
79707;BME280;69200;53.612;-2.416;2023-07-31T00:13:18;98638.66;;;15.69;91.96
79707;BME280;69200;53.612;-2.416;2023-07-31T00:15:44;98638.75;;;15.78;90.91
79707;BME280;69200;53.612;-2.416;2023-07-31T00:18:09;98632.25;;;15.60;92.49
79707;BME280;69200;53.612;-2.416;2023-07-31T00:20:35;98628.22;;;15.57;92.43
79707;BME280;69200;53.612;-2.416;2023-07-31T00:23:00;98628.22;;;15.71;92.19
79707;BME280;69200;53.612;-2.416;2023-07-31T00:25:25;98635.78;;;15.47;92.65
79707;BME280;69200;53.612;-2.416;2023-07-31T00:27:51;98624.91;;;15.74;91.39
79707;BME280;69200;53.612;-2.416;2023-07-31T00:30:16;98630.66;;;15.59;92.49
79707;BME280;69200;53.612;-2.416;2023-07-31T00:32:41;98626.72;;;15.65;92.19
79707;BME280;69200;53.612;-2.416;2023-07-31T00:35:07;98628.94;;;15.63;92.84
79707;BME280;69200;53.612;-2.416;2023-07-31T00:37:32;98622.56;;;15.81;91.47
79707;BME280;69200;53.612;-2.416;2023-07-31T00:39:58;98618.59;;;15.60;92.93
79707;BME280;69200;53.612;-2.416;2023-07-31T00:42:24;98622.38;;;15.64;93.14
79707;BME280;69200;53.612;-2.416;2023-07-31T00:44:49;98611.09;;;15.79;92.41
79707;BME280;69200;53.612;-2.416;2023-07-31T00:47:15;98616.88;;;15.91;92.08
79707;BME280;69200;53.612;-2.416;2023-07-31T00:49:40;98613.56;;;15.81;92.70
79707;BME280;69200;53.612;-2.416;2023-07-31T00:52:06;98612.13;;;15.70;93.21
79707;BME280;69200;53.612;-2.416;2023-07-31T00:54:32;98603.72;;;15.80;92.26
79707;BME280;69200;53.612;-2.416;2023-07-31T00:56:58;98605.84;;;15.97;91.00
79707;BME280;69200;53.612;-2.416;2023-07-31T00:59:23;98597.72;;;16.05;91.45
79707;BME280;69200;53.612;-2.416;2023-07-31T01:01:49;98598.66;;;15.73;93.09
79707;BME280;69200;53.612;-2.416;2023-07-31T01:04:15;98589.22;;;15.79;92.49
79707;BME280;69200;53.612;-2.416;2023-07-31T01:06:56;98588.19;;;16.03;91.37
79707;BME280;69200;53.612;-2.416;2023-07-31T01:12:02;98587.75;;;16.09;91.40
79707;BME280;69200;53.612;-2.416;2023-07-31T01:14:28;98584.06;;;15.91;92.38
79707;BME280;69200;53.612;-2.416;2023-07-31T01:16:54;98584.56;;;15.93;92.72
79707;BME280;69200;53.612;-2.416;2023-07-31T01:19:24;98585.97;;;16.05;91.58
79707;BME280;69200;53.612;-2.416;2023-07-31T01:27:25;98585.09;;;16.18;91.11
79707;BME280;69200;53.612;-2.416;2023-07-31T01:30:08;98580.44;;;16.18;91.01
79707;BME280;69200;53.612;-2.416;2023-07-31T01:32:36;98587.59;;;16.28;90.69
79707;BME280;69200;53.612;-2.416;2023-07-31T01:35:03;98576.81;;;16.09;92.02
79707;BME280;69200;53.612;-2.416;2023-07-31T01:37:29;98578.53;;;16.41;89.78
79707;BME280;69200;53.612;-2.416;2023-07-31T01:39:57;98596.28;;;16.08;91.57
79707;BME280;69200;53.612;-2.416;2023-07-31T01:42:22;98587.19;;;15.99;92.45
79707;BME280;69200;53.612;-2.416;2023-07-31T01:44:48;98581.63;;;15.90;92.75
79707;BME280;69200;53.612;-2.416;2023-07-31T01:47:13;98579.69;;;16.04;92.31
79707;BME280;69200;53.612;-2.416;2023-07-31T01:49:38;98584.13;;;16.14;91.65
79707;BME280;69200;53.612;-2.416;2023-07-31T01:52:04;98578.38;;;15.88;93.57
79707;BME280;69200;53.612;-2.416;2023-07-31T01:54:29;98572.81;;;15.79;94.26
79707;BME280;69200;53.612;-2.416;2023-07-31T01:56:55;98564.06;;;16.05;92.90
79707;BME280;69200;53.612;-2.416;2023-07-31T01:59:23;98568.44;;;16.28;91.08
79707;BME280;69200;53.612;-2.416;2023-07-31T02:01:49;98562.50;;;16.48;89.90
79707;BME280;69200;53.612;-2.416;2023-07-31T02:04:14;98566.72;;;16.32;91.12
79707;BME280;69200;53.612;-2.416;2023-07-31T02:06:39;98560.38;;;16.09;92.12
79707;BME280;69200;53.612;-2.416;2023-07-31T02:09:05;98554.25;;;16.26;91.31
79707;BME280;69200;53.612;-2.416;2023-07-31T02:11:30;98556.03;;;16.44;89.41
79707;BME280;69200;53.612;-2.416;2023-07-31T02:13:55;98559.00;;;16.57;89.10
79707;BME280;69200;53.612;-2.416;2023-07-31T02:16:21;98550.91;;;16.51;89.91
79707;BME280;69200;53.612;-2.416;2023-07-31T02:18:46;98545.56;;;16.46;89.05
79707;BME280;69200;53.612;-2.416;2023-07-31T02:21:12;98543.81;;;16.50;87.95
79707;BME280;69200;53.612;-2.416;2023-07-31T02:23:37;98541.31;;;16.18;92.30
79707;BME280;69200;53.612;-2.416;2023-07-31T02:26:02;98540.31;;;16.14;92.51
79707;BME280;69200;53.612;-2.416;2023-07-31T02:28:28;98539.59;;;16.44;90.43
79707;BME280;69200;53.612;-2.416;2023-07-31T02:30:54;98535.22;;;16.43;90.92
79707;BME280;69200;53.612;-2.416;2023-07-31T02:33:19;98538.47;;;16.45;90.40
79707;BME280;69200;53.612;-2.416;2023-07-31T02:35:45;98529.09;;;16.38;90.45
79707;BME280;69200;53.612;-2.416;2023-07-31T02:38:10;98527.69;;;16.27;92.01
79707;BME280;69200;53.612;-2.416;2023-07-31T02:40:39;98531.44;;;15.94;93.82
79707;BME280;69200;53.612;-2.416;2023-07-31T02:43:05;98524.47;;;16.25;92.59
79707;BME280;69200;53.612;-2.416;2023-07-31T02:45:30;98526.03;;;16.39;91.26
79707;BME280;69200;53.612;-2.416;2023-07-31T02:47:56;98520.44;;;16.44;90.89
79707;BME280;69200;53.612;-2.416;2023-07-31T02:50:21;98515.19;;;16.57;89.44
79707;BME280;69200;53.612;-2.416;2023-07-31T02:52:46;98514.44;;;16.65;88.91
79707;BME280;69200;53.612;-2.416;2023-07-31T02:55:12;98520.13;;;16.46;91.23
79707;BME280;69200;53.612;-2.416;2023-07-31T02:57:37;98525.34;;;16.34;90.96
79707;BME280;69200;53.612;-2.416;2023-07-31T03:00:03;98519.03;;;16.33;91.77
79707;BME280;69200;53.612;-2.416;2023-07-31T03:02:31;98519.69;;;16.30;92.00
79707;BME280;69200;53.612;-2.416;2023-07-31T03:04:56;98517.34;;;16.01;94.27
79707;BME280;69200;53.612;-2.416;2023-07-31T03:07:22;98513.63;;;16.19;92.46
79707;BME280;69200;53.612;-2.416;2023-07-31T03:09:47;98511.47;;;16.30;92.40
79707;BME280;69200;53.612;-2.416;2023-07-31T03:12:12;98513.69;;;16.28;92.75
79707;BME280;69200;53.612;-2.416;2023-07-31T03:14:38;98516.44;;;16.06;93.28
79707;BME280;69200;53.612;-2.416;2023-07-31T03:17:03;98514.56;;;16.15;92.95
79707;BME280;69200;53.612;-2.416;2023-07-31T03:19:31;98502.31;;;16.12;93.38
79707;BME280;69200;53.612;-2.416;2023-07-31T03:21:57;98514.84;;;15.91;94.91
79707;BME280;69200;53.612;-2.416;2023-07-31T03:24:22;98518.50;;;15.86;95.54
79707;BME280;69200;53.612;-2.416;2023-07-31T03:26:47;98512.19;;;16.00;94.92
79707;BME280;69200;53.612;-2.416;2023-07-31T03:29:13;98510.56;;;15.99;94.86
79707;BME280;69200;53.612;-2.416;2023-07-31T03:31:38;98517.13;;;15.75;95.78
79707;BME280;69200;53.612;-2.416;2023-07-31T03:34:03;98513.00;;;16.00;94.86
79707;BME280;69200;53.612;-2.416;2023-07-31T03:36:29;98514.16;;;16.21;93.03
79707;BME280;69200;53.612;-2.416;2023-07-31T03:38:54;98517.78;;;16.17;94.01
79707;BME280;69200;53.612;-2.416;2023-07-31T03:41:20;98523.31;;;16.03;94.25
79707;BME280;69200;53.612;-2.416;2023-07-31T03:43:49;98517.16;;;16.20;93.83
79707;BME280;69200;53.612;-2.416;2023-07-31T03:46:14;98505.41;;;16.19;93.83
79707;BME280;69200;53.612;-2.416;2023-07-31T03:48:40;98518.81;;;16.21;93.71
79707;BME280;69200;53.612;-2.416;2023-07-31T03:51:05;98517.56;;;16.05;93.96
79707;BME280;69200;53.612;-2.416;2023-07-31T03:53:31;98516.53;;;16.01;94.79
79707;BME280;69200;53.612;-2.416;2023-07-31T03:55:56;98518.91;;;16.16;94.53
79707;BME280;69200;53.612;-2.416;2023-07-31T03:58:21;98518.53;;;16.09;94.47
79707;BME280;69200;53.612;-2.416;2023-07-31T04:00:47;98518.63;;;15.81;94.63
79707;BME280;69200;53.612;-2.416;2023-07-31T04:03:12;98518.31;;;15.83;94.76
79707;BME280;69200;53.612;-2.416;2023-07-31T04:05:38;98512.03;;;15.55;93.99
79707;BME280;69200;53.612;-2.416;2023-07-31T04:08:04;98511.94;;;15.60;94.39
79707;BME280;69200;53.612;-2.416;2023-07-31T04:10:29;98505.75;;;15.54;94.52
79707;BME280;69200;53.612;-2.416;2023-07-31T04:12:56;98504.06;;;15.58;94.61
79707;BME280;69200;53.612;-2.416;2023-07-31T04:15:21;98509.31;;;15.55;94.80
79707;BME280;69200;53.612;-2.416;2023-07-31T04:17:47;98513.28;;;15.49;95.69
79707;BME280;69200;53.612;-2.416;2023-07-31T04:20:12;98516.72;;;15.68;95.73
79707;BME280;69200;53.612;-2.416;2023-07-31T04:22:37;98512.50;;;15.98;93.49
79707;BME280;69200;53.612;-2.416;2023-07-31T04:25:03;98514.94;;;16.22;92.67
79707;BME280;69200;53.612;-2.416;2023-07-31T04:27:28;98520.25;;;15.82;94.75
79707;BME280;69200;53.612;-2.416;2023-07-31T04:29:53;98516.75;;;16.04;94.20
79707;BME280;69200;53.612;-2.416;2023-07-31T04:32:19;98513.56;;;15.88;95.10
79707;BME280;69200;53.612;-2.416;2023-07-31T04:34:45;98515.91;;;16.04;93.07
79707;BME280;69200;53.612;-2.416;2023-07-31T04:37:11;98513.00;;;16.00;94.64
79707;BME280;69200;53.612;-2.416;2023-07-31T04:39:36;98523.53;;;16.07;94.45
79707;BME280;69200;53.612;-2.416;2023-07-31T04:42:02;98513.91;;;15.95;94.48
79707;BME280;69200;53.612;-2.416;2023-07-31T04:44:27;98518.19;;;15.88;95.27
79707;BME280;69200;53.612;-2.416;2023-07-31T04:46:52;98518.56;;;15.95;95.39
79707;BME280;69200;53.612;-2.416;2023-07-31T04:49:18;98522.97;;;15.82;94.92
79707;BME280;69200;53.612;-2.416;2023-07-31T04:51:44;98524.56;;;15.97;94.84
79707;BME280;69200;53.612;-2.416;2023-07-31T04:54:09;98523.00;;;15.69;95.28
79707;BME280;69200;53.612;-2.416;2023-07-31T04:56:35;98524.00;;;15.59;96.77
79707;BME280;69200;53.612;-2.416;2023-07-31T04:59:00;98531.13;;;15.96;94.16
79707;BME280;69200;53.612;-2.416;2023-07-31T05:01:25;98527.94;;;15.80;94.86
79707;BME280;69200;53.612;-2.416;2023-07-31T05:03:51;98536.53;;;15.87;93.43
79707;BME280;69200;53.612;-2.416;2023-07-31T05:06:16;98529.03;;;15.79;93.95
79707;BME280;69200;53.612;-2.416;2023-07-31T05:08:42;98535.16;;;15.62;94.56
79707;BME280;69200;53.612;-2.416;2023-07-31T05:11:07;98529.88;;;15.38;94.58
79707;BME280;69200;53.612;-2.416;2023-07-31T05:13:32;98528.75;;;15.39;94.78
79707;BME280;69200;53.612;-2.416;2023-07-31T05:15:58;98536.06;;;15.30;95.58
79707;BME280;69200;53.612;-2.416;2023-07-31T05:18:23;98539.81;;;15.34;95.31
79707;BME280;69200;53.612;-2.416;2023-07-31T05:20:48;98528.66;;;15.45;95.17
79707;BME280;69200;53.612;-2.416;2023-07-31T05:23:14;98522.06;;;15.46;94.91
79707;BME280;69200;53.612;-2.416;2023-07-31T05:25:39;98527.75;;;15.35;95.87
79707;BME280;69200;53.612;-2.416;2023-07-31T05:28:05;98515.63;;;15.42;95.15
79707;BME280;69200;53.612;-2.416;2023-07-31T05:30:30;98527.44;;;15.51;94.61
79707;BME280;69200;53.612;-2.416;2023-07-31T05:32:56;98525.66;;;15.32;95.44
79707;BME280;69200;53.612;-2.416;2023-07-31T05:35:21;98520.38;;;15.50;94.50
79707;BME280;69200;53.612;-2.416;2023-07-31T05:37:47;98521.38;;;15.26;94.58
79707;BME280;69200;53.612;-2.416;2023-07-31T05:40:12;98516.91;;;15.30;94.20
79707;BME280;69200;53.612;-2.416;2023-07-31T05:42:37;98521.69;;;15.38;94.60
79707;BME280;69200;53.612;-2.416;2023-07-31T05:45:05;98519.38;;;15.32;94.45
79707;BME280;69200;53.612;-2.416;2023-07-31T05:47:30;98517.34;;;15.65;92.80
79707;BME280;69200;53.612;-2.416;2023-07-31T05:49:56;98510.25;;;15.64;93.39
79707;BME280;69200;53.612;-2.416;2023-07-31T05:52:21;98504.38;;;15.57;93.37
79707;BME280;69200;53.612;-2.416;2023-07-31T05:54:46;98505.56;;;15.51;94.08
79707;BME280;69200;53.612;-2.416;2023-07-31T05:57:12;98493.72;;;15.55;93.46
79707;BME280;69200;53.612;-2.416;2023-07-31T05:59:37;98498.38;;;15.69;93.58
79707;BME280;69200;53.612;-2.416;2023-07-31T06:02:03;98506.81;;;15.72;93.06
79707;BME280;69200;53.612;-2.416;2023-07-31T06:04:28;98500.38;;;15.77;93.16
79707;BME280;69200;53.612;-2.416;2023-07-31T06:06:54;98502.03;;;15.50;94.11
79707;BME280;69200;53.612;-2.416;2023-07-31T06:09:19;98500.13;;;15.51;94.48
79707;BME280;69200;53.612;-2.416;2023-07-31T06:11:45;98501.09;;;15.55;94.96
79707;BME280;69200;53.612;-2.416;2023-07-31T06:14:11;98502.31;;;15.76;93.56
79707;BME280;69200;53.612;-2.416;2023-07-31T06:16:36;98499.91;;;15.61;93.57
79707;BME280;69200;53.612;-2.416;2023-07-31T06:19:02;98499.72;;;15.44;94.38
79707;BME280;69200;53.612;-2.416;2023-07-31T06:21:27;98507.38;;;15.55;94.85
79707;BME280;69200;53.612;-2.416;2023-07-31T06:23:53;98505.38;;;15.61;94.29
79707;BME280;69200;53.612;-2.416;2023-07-31T06:26:18;98497.88;;;15.66;93.60
79707;BME280;69200;53.612;-2.416;2023-07-31T06:28:44;98502.72;;;15.56;94.41
79707;BME280;69200;53.612;-2.416;2023-07-31T06:31:09;98500.69;;;15.48;94.16
79707;BME280;69200;53.612;-2.416;2023-07-31T06:33:35;98503.75;;;15.60;93.83
79707;BME280;69200;53.612;-2.416;2023-07-31T06:36:00;98493.34;;;15.48;93.16
79707;BME280;69200;53.612;-2.416;2023-07-31T06:38:26;98502.13;;;15.59;92.69
79707;BME280;69200;53.612;-2.416;2023-07-31T06:40:52;98510.53;;;15.62;92.63
79707;BME280;69200;53.612;-2.416;2023-07-31T06:43:18;98503.34;;;15.66;93.45
79707;BME280;69200;53.612;-2.416;2023-07-31T06:45:43;98510.72;;;15.80;92.24
79707;BME280;69200;53.612;-2.416;2023-07-31T06:48:09;98516.09;;;15.71;92.97
79707;BME280;69200;53.612;-2.416;2023-07-31T06:50:34;98515.00;;;15.72;93.37
79707;BME280;69200;53.612;-2.416;2023-07-31T06:53:00;98504.34;;;15.71;93.59
79707;BME280;69200;53.612;-2.416;2023-07-31T06:55:26;98513.28;;;15.62;93.71
79707;BME280;69200;53.612;-2.416;2023-07-31T06:57:54;98515.09;;;15.67;94.24
79707;BME280;69200;53.612;-2.416;2023-07-31T07:00:22;98517.50;;;15.82;93.88
79707;BME280;69200;53.612;-2.416;2023-07-31T07:02:48;98507.75;;;15.90;92.56
79707;BME280;69200;53.612;-2.416;2023-07-31T07:05:14;98518.28;;;16.19;91.78
79707;BME280;69200;53.612;-2.416;2023-07-31T07:07:40;98511.28;;;16.04;90.76
79707;BME280;69200;53.612;-2.416;2023-07-31T07:10:06;98515.72;;;16.00;91.92
79707;BME280;69200;53.612;-2.416;2023-07-31T07:12:32;98508.88;;;16.11;92.04
79707;BME280;69200;53.612;-2.416;2023-07-31T07:14:58;98508.97;;;16.20;91.22
79707;BME280;69200;53.612;-2.416;2023-07-31T07:17:25;98513.34;;;15.85;92.16
79707;BME280;69200;53.612;-2.416;2023-07-31T07:19:50;98507.78;;;15.76;93.27
79707;BME280;69200;53.612;-2.416;2023-07-31T07:22:16;98509.09;;;15.79;93.03
79707;BME280;69200;53.612;-2.416;2023-07-31T07:24:41;98505.94;;;15.85;92.98
79707;BME280;69200;53.612;-2.416;2023-07-31T07:27:07;98515.16;;;16.12;91.74
79707;BME280;69200;53.612;-2.416;2023-07-31T07:29:34;98514.16;;;15.72;93.59
79707;BME280;69200;53.612;-2.416;2023-07-31T07:31:59;98516.53;;;15.64;93.67
79707;BME280;69200;53.612;-2.416;2023-07-31T07:34:26;98515.41;;;15.65;93.19
79707;BME280;69200;53.612;-2.416;2023-07-31T07:36:52;98505.56;;;15.51;94.15
79707;BME280;69200;53.612;-2.416;2023-07-31T07:39:17;98504.16;;;15.67;93.73
79707;BME280;69200;53.612;-2.416;2023-07-31T07:41:42;98515.19;;;15.62;93.16
79707;BME280;69200;53.612;-2.416;2023-07-31T07:44:08;98519.47;;;15.41;94.00
79707;BME280;69200;53.612;-2.416;2023-07-31T07:46:34;98521.84;;;15.56;93.64
79707;BME280;69200;53.612;-2.416;2023-07-31T07:48:59;98526.25;;;15.43;93.49
79707;BME280;69200;53.612;-2.416;2023-07-31T07:51:25;98524.44;;;15.25;94.26
79707;BME280;69200;53.612;-2.416;2023-07-31T07:53:50;98511.22;;;15.54;93.44
79707;BME280;69200;53.612;-2.416;2023-07-31T07:56:16;98504.38;;;15.57;93.49
79707;BME280;69200;53.612;-2.416;2023-07-31T07:58:41;98504.16;;;15.53;93.15
79707;BME280;69200;53.612;-2.416;2023-07-31T08:01:06;98509.13;;;15.65;92.09
79707;BME280;69200;53.612;-2.416;2023-07-31T08:03:32;98501.91;;;15.83;91.40
79707;BME280;69200;53.612;-2.416;2023-07-31T08:06:01;98493.06;;;15.86;91.89
79707;BME280;69200;53.612;-2.416;2023-07-31T08:08:27;98499.69;;;15.71;92.41
79707;BME280;69200;53.612;-2.416;2023-07-31T08:10:53;98494.00;;;15.81;91.92
79707;BME280;69200;53.612;-2.416;2023-07-31T08:13:18;98490.84;;;16.10;91.26
79707;BME280;69200;53.612;-2.416;2023-07-31T08:15:44;98489.06;;;16.06;91.60
79707;BME280;69200;53.612;-2.416;2023-07-31T08:18:10;98488.72;;;15.85;92.11
79707;BME280;69200;53.612;-2.416;2023-07-31T08:20:36;98485.81;;;16.04;91.61
79707;BME280;69200;53.612;-2.416;2023-07-31T08:23:02;98491.53;;;15.93;92.28
79707;BME280;69200;53.612;-2.416;2023-07-31T08:25:28;98490.53;;;16.12;92.07
79707;BME280;69200;53.612;-2.416;2023-07-31T08:27:54;98489.31;;;16.18;91.35
79707;BME280;69200;53.612;-2.416;2023-07-31T08:30:19;98489.56;;;16.08;91.21
79707;BME280;69200;53.612;-2.416;2023-07-31T08:32:45;98490.44;;;16.17;90.71
79707;BME280;69200;53.612;-2.416;2023-07-31T08:35:10;98482.59;;;16.24;90.67
79707;BME280;69200;53.612;-2.416;2023-07-31T08:37:37;98494.00;;;16.04;92.09
79707;BME280;69200;53.612;-2.416;2023-07-31T08:40:03;98502.44;;;16.07;91.69
79707;BME280;69200;53.612;-2.416;2023-07-31T08:42:29;98498.13;;;15.92;91.51
79707;BME280;69200;53.612;-2.416;2023-07-31T08:44:56;98502.13;;;15.73;92.84
79707;BME280;69200;53.612;-2.416;2023-07-31T08:47:22;98497.97;;;15.75;93.99
79707;BME280;69200;53.612;-2.416;2023-07-31T08:49:49;98477.50;;;16.09;91.04
79707;BME280;69200;53.612;-2.416;2023-07-31T08:52:15;98460.59;;;16.29;90.26
79707;BME280;69200;53.612;-2.416;2023-07-31T08:54:41;98452.25;;;15.89;91.51
79707;BME280;69200;53.612;-2.416;2023-07-31T08:57:07;98456.84;;;16.03;91.70
79707;BME280;69200;53.612;-2.416;2023-07-31T08:59:34;98466.53;;;16.09;91.72
79707;BME280;69200;53.612;-2.416;2023-07-31T09:02:06;98458.78;;;16.25;90.85
79707;BME280;69200;53.612;-2.416;2023-07-31T09:04:33;98462.09;;;16.13;92.77
79707;BME280;69200;53.612;-2.416;2023-07-31T09:07:01;98471.81;;;16.28;91.69
79707;BME280;69200;53.612;-2.416;2023-07-31T09:09:28;98471.47;;;16.20;91.51
79707;BME280;69200;53.612;-2.416;2023-07-31T09:11:54;98478.78;;;16.34;90.50
79707;BME280;69200;53.612;-2.416;2023-07-31T09:14:21;98463.59;;;16.28;91.27
79707;BME280;69200;53.612;-2.416;2023-07-31T09:16:57;98474.44;;;16.10;91.75
79707;BME280;69200;53.612;-2.416;2023-07-31T09:19:33;98465.78;;;16.39;89.51
79707;BME280;69200;53.612;-2.416;2023-07-31T09:21:59;98467.28;;;16.23;90.16
79707;BME280;69200;53.612;-2.416;2023-07-31T09:24:27;98470.53;;;16.25;89.65
79707;BME280;69200;53.612;-2.416;2023-07-31T09:26:56;98466.44;;;16.14;90.01
79707;BME280;69200;53.612;-2.416;2023-07-31T09:29:22;98471.56;;;15.93;91.62
79707;BME280;69200;53.612;-2.416;2023-07-31T09:31:48;98482.09;;;16.00;91.36
79707;BME280;69200;53.612;-2.416;2023-07-31T09:34:13;98473.84;;;15.77;91.30
79707;BME280;69200;53.612;-2.416;2023-07-31T09:36:43;98497.25;;;15.70;93.23
79707;BME280;69200;53.612;-2.416;2023-07-31T09:39:13;98493.59;;;15.60;93.53
79707;BME280;69200;53.612;-2.416;2023-07-31T09:41:43;98488.75;;;15.71;93.73
79707;BME280;69200;53.612;-2.416;2023-07-31T09:44:10;98482.44;;;15.84;92.58
79707;BME280;69200;53.612;-2.416;2023-07-31T09:46:36;98481.28;;;15.63;93.99
79707;BME280;69200;53.612;-2.416;2023-07-31T09:51:31;98467.41;;;16.18;91.83
79707;BME280;69200;53.612;-2.416;2023-07-31T09:53:56;98467.78;;;16.25;91.44
79707;BME280;69200;53.612;-2.416;2023-07-31T09:56:23;98469.09;;;16.28;91.29
79707;BME280;69200;53.612;-2.416;2023-07-31T09:58:49;98467.56;;;16.13;91.96
79707;BME280;69200;53.612;-2.416;2023-07-31T10:01:15;98474.97;;;16.12;91.91
79707;BME280;69200;53.612;-2.416;2023-07-31T10:03:42;98467.41;;;15.95;92.49
79707;BME280;69200;53.612;-2.416;2023-07-31T10:06:09;98470.88;;;16.10;91.22
79707;BME280;69200;53.612;-2.416;2023-07-31T10:08:36;98470.88;;;15.87;92.04
79707;BME280;69200;53.612;-2.416;2023-07-31T10:11:03;98466.31;;;15.97;92.15
79707;BME280;69200;53.612;-2.416;2023-07-31T10:13:31;98474.44;;;16.10;91.81
79707;BME280;69200;53.612;-2.416;2023-07-31T10:15:59;98473.88;;;16.00;91.59
79707;BME280;69200;53.612;-2.416;2023-07-31T10:18:26;98478.97;;;15.92;92.43
79707;BME280;69200;53.612;-2.416;2023-07-31T10:20:53;98489.91;;;15.92;92.48
79707;BME280;69200;53.612;-2.416;2023-07-31T10:23:19;98493.41;;;15.71;93.68
79707;BME280;69200;53.612;-2.416;2023-07-31T10:25:45;98497.97;;;15.48;93.99
79707;BME280;69200;53.612;-2.416;2023-07-31T10:28:12;98485.56;;;15.28;94.43
79707;BME280;69200;53.612;-2.416;2023-07-31T10:30:39;98484.53;;;15.37;94.09
79707;BME280;69200;53.612;-2.416;2023-07-31T10:33:05;98478.47;;;15.41;94.37
79707;BME280;69200;53.612;-2.416;2023-07-31T10:35:31;98457.41;;;15.27;94.74
79707;BME280;69200;53.612;-2.416;2023-07-31T10:38:09;98462.84;;;15.69;92.52
79707;BME280;69200;53.612;-2.416;2023-07-31T10:40:36;98443.41;;;15.43;94.68
79707;BME280;69200;53.612;-2.416;2023-07-31T10:43:02;98432.44;;;15.70;93.15
79707;BME280;69200;53.612;-2.416;2023-07-31T10:45:33;98438.94;;;15.97;92.35
79707;BME280;69200;53.612;-2.416;2023-07-31T10:48:12;98451.44;;;15.89;92.57
79707;BME280;69200;53.612;-2.416;2023-07-31T10:50:45;98465.59;;;15.91;92.32
79707;BME280;69200;53.612;-2.416;2023-07-31T10:53:23;98452.97;;;15.81;92.42
79707;BME280;69200;53.612;-2.416;2023-07-31T10:55:48;98449.94;;;15.83;92.26
79707;BME280;69200;53.612;-2.416;2023-07-31T10:58:18;98457.41;;;15.91;91.64
79707;BME280;69200;53.612;-2.416;2023-07-31T11:00:45;98447.69;;;16.07;90.23
79707;BME280;69200;53.612;-2.416;2023-07-31T11:03:13;98436.69;;;15.76;91.83
79707;BME280;69200;53.612;-2.416;2023-07-31T11:05:44;98429.97;;;15.82;92.15
79707;BME280;69200;53.612;-2.416;2023-07-31T11:10:45;98418.16;;;16.18;90.22
79707;BME280;69200;53.612;-2.416;2023-07-31T11:13:11;98434.56;;;16.18;90.56
79707;BME280;69200;53.612;-2.416;2023-07-31T11:15:37;98454.53;;;16.18;90.53
79707;BME280;69200;53.612;-2.416;2023-07-31T11:18:03;98459.44;;;15.85;90.91
79707;BME280;69200;53.612;-2.416;2023-07-31T11:20:30;98449.19;;;15.91;91.02
79707;BME280;69200;53.612;-2.416;2023-07-31T11:22:59;98449.63;;;16.07;89.88
79707;BME280;69200;53.612;-2.416;2023-07-31T11:25:24;98440.34;;;16.16;89.38
79707;BME280;69200;53.612;-2.416;2023-07-31T11:27:50;98456.72;;;16.08;90.55
79707;BME280;69200;53.612;-2.416;2023-07-31T11:30:19;98459.84;;;16.15;89.60
79707;BME280;69200;53.612;-2.416;2023-07-31T11:32:45;98460.81;;;16.19;89.11
79707;BME280;69200;53.612;-2.416;2023-07-31T11:35:13;98451.56;;;16.06;90.46
79707;BME280;69200;53.612;-2.416;2023-07-31T11:37:42;98462.44;;;16.20;89.19
79707;BME280;69200;53.612;-2.416;2023-07-31T11:40:08;98460.59;;;16.29;89.14
79707;BME280;69200;53.612;-2.416;2023-07-31T11:42:35;98449.53;;;16.43;88.46
79707;BME280;69200;53.612;-2.416;2023-07-31T11:45:07;98445.75;;;16.53;87.67
79707;BME280;69200;53.612;-2.416;2023-07-31T11:47:33;98441.84;;;16.45;89.50
79707;BME280;69200;53.612;-2.416;2023-07-31T11:50:06;98452.06;;;16.31;89.46
79707;BME280;69200;53.612;-2.416;2023-07-31T11:52:40;98440.31;;;16.08;89.30
79707;BME280;69200;53.612;-2.416;2023-07-31T11:55:08;98430.97;;;16.31;88.79
79707;BME280;69200;53.612;-2.416;2023-07-31T11:57:36;98432.84;;;16.22;88.51
79707;BME280;69200;53.612;-2.416;2023-07-31T12:00:03;98428.34;;;16.26;88.34
79707;BME280;69200;53.612;-2.416;2023-07-31T12:02:29;98405.19;;;16.32;89.38
79707;BME280;69200;53.612;-2.416;2023-07-31T12:04:54;98408.81;;;16.50;89.17
79707;BME280;69200;53.612;-2.416;2023-07-31T12:07:20;98409.88;;;16.63;89.20
79707;BME280;69200;53.612;-2.416;2023-07-31T12:09:53;98419.03;;;16.67;87.84
79707;BME280;69200;53.612;-2.416;2023-07-31T12:12:23;98432.38;;;16.60;88.82
79707;BME280;69200;53.612;-2.416;2023-07-31T12:14:49;98420.00;;;16.62;88.28
79707;BME280;69200;53.612;-2.416;2023-07-31T12:17:16;98413.03;;;16.78;86.95
79707;BME280;69200;53.612;-2.416;2023-07-31T12:19:41;98413.72;;;16.62;87.36
79707;BME280;69200;53.612;-2.416;2023-07-31T12:22:14;98424.03;;;16.65;87.46
79707;BME280;69200;53.612;-2.416;2023-07-31T12:24:41;98425.47;;;16.31;87.57
79707;BME280;69200;53.612;-2.416;2023-07-31T12:27:14;98414.75;;;16.12;88.61
79707;BME280;69200;53.612;-2.416;2023-07-31T12:29:41;98413.25;;;15.84;90.09
79707;BME280;69200;53.612;-2.416;2023-07-31T12:32:23;98420.00;;;15.86;90.19
79707;BME280;69200;53.612;-2.416;2023-07-31T12:34:50;98411.75;;;16.00;88.74
79707;BME280;69200;53.612;-2.416;2023-07-31T12:37:15;98413.81;;;15.94;89.01
79707;BME280;69200;53.612;-2.416;2023-07-31T12:39:41;98418.66;;;15.98;88.87
79707;BME280;69200;53.612;-2.416;2023-07-31T12:42:06;98403.06;;;15.98;89.41
79707;BME280;69200;53.612;-2.416;2023-07-31T12:44:32;98396.16;;;16.01;90.07
79707;BME280;69200;53.612;-2.416;2023-07-31T12:46:57;98406.97;;;16.06;89.11
79707;BME280;69200;53.612;-2.416;2023-07-31T12:49:24;98392.31;;;16.33;88.11
79707;BME280;69200;53.612;-2.416;2023-07-31T12:51:49;98393.72;;;16.53;87.67
79707;BME280;69200;53.612;-2.416;2023-07-31T12:54:14;98394.31;;;16.49;88.00
79707;BME280;69200;53.612;-2.416;2023-07-31T12:56:40;98399.06;;;16.66;86.80
79707;BME280;69200;53.612;-2.416;2023-07-31T12:59:05;98394.97;;;16.46;88.05